Weather at Banjul International Airport

Public forecast

Using degrees Celsius for public forecast. Weather courtesy of forecast.io.

Current aviation weather report (METAR) for Banjul International Airport

Report is more than 6 hours old.

2022/11/14 15:00 (retrieved 2 years ago)

GBYD 141500Z 25005KT CAVOK 33/17 Q1011

Aviation forecast (TAF) for Banjul International Airport

Forecast is more than 12 hours old.

2023/02/22 18:00 (retrieved 1 year ago)

TAF GBYD 221700Z 2218/2324 30010KT 8000 NSC